createdAt,value
2022-12-14T00:00:54.708Z,16.10
2022-12-14T00:02:57.182Z,13.77
2022-12-14T00:04:59.521Z,15.00
2022-12-14T00:07:01.596Z,14.17
2022-12-14T00:09:05.053Z,13.10
2022-12-14T00:11:07.117Z,12.90
2022-12-14T00:13:12.657Z,12.47
2022-12-14T00:15:14.775Z,11.60
2022-12-14T00:17:16.753Z,15.00
2022-12-14T00:19:21.488Z,11.60
2022-12-14T00:21:23.832Z,11.57
2022-12-14T00:23:25.821Z,12.70
2022-12-14T00:25:29.296Z,12.03
2022-12-14T00:27:31.124Z,17.87
2022-12-14T00:29:33.107Z,16.90
2022-12-14T00:31:36.513Z,18.43
2022-12-14T00:33:39.054Z,15.83
2022-12-14T00:35:44.136Z,12.60
2022-12-14T00:37:48.921Z,13.43
2022-12-14T00:39:51.142Z,12.93
2022-12-14T00:41:53.598Z,11.97
2022-12-14T00:43:55.476Z,11.87
2022-12-14T00:45:57.684Z,11.90
2022-12-14T00:47:59.732Z,14.03
2022-12-14T00:50:01.839Z,13.40
2022-12-14T00:52:03.893Z,16.03
2022-12-14T00:54:05.999Z,13.33
2022-12-14T00:56:08.811Z,16.50
2022-12-14T00:58:12.813Z,13.83
2022-12-14T01:00:16.578Z,19.97
2022-12-14T01:02:18.909Z,19.53
2022-12-14T01:04:23.351Z,17.83
2022-12-14T01:06:25.568Z,19.97
2022-12-14T01:08:35.927Z,15.83
2022-12-14T01:10:41.140Z,15.23
2022-12-14T01:12:43.215Z,13.73
2022-12-14T01:14:46.435Z,17.57
2022-12-14T01:16:48.572Z,15.30
2022-12-14T01:18:50.698Z,12.33
2022-12-14T01:20:52.743Z,11.43
2022-12-14T01:22:59.055Z,11.43
2022-12-14T01:25:01.132Z,11.47
2022-12-14T01:27:03.470Z,10.33
2022-12-14T01:29:06.365Z,10.63
2022-12-14T01:31:17.928Z,12.17
2022-12-14T01:33:19.965Z,11.23
2022-12-14T01:35:22.009Z,11.50
2022-12-14T01:37:23.924Z,13.00
2022-12-14T01:39:25.917Z,13.73
2022-12-14T01:41:29.482Z,12.60
2022-12-14T01:43:51.837Z,12.93
2022-12-14T01:45:57.875Z,11.90
2022-12-14T01:48:02.998Z,9.77
2022-12-14T01:50:25.460Z,9.17
2022-12-14T01:52:40.109Z,9.73
2022-12-14T01:54:49.249Z,9.97
2022-12-14T01:56:52.550Z,8.97
2022-12-14T01:58:56.933Z,9.37
2022-12-14T02:01:02.592Z,9.07
2022-12-14T02:03:13.038Z,8.43
2022-12-14T02:05:18.465Z,7.87
2022-12-14T02:07:21.855Z,10.10
2022-12-14T02:09:30.525Z,10.07
2022-12-14T02:11:43.867Z,11.20
2022-12-14T02:13:48.904Z,11.47
2022-12-14T02:15:52.220Z,11.87
2022-12-14T02:17:54.566Z,12.10
2022-12-14T02:19:58.285Z,15.33
2022-12-14T02:22:12.652Z,16.03
2022-12-14T02:24:30.136Z,18.00
2022-12-14T02:26:55.147Z,17.13
2022-12-14T02:29:18.295Z,14.03
2022-12-14T02:32:11.129Z,13.10
2022-12-14T02:34:32.553Z,10.43
2022-12-14T02:36:43.730Z,11.13
2022-12-14T02:39:34.751Z,12.77
2022-12-14T02:42:09.126Z,12.23
2022-12-14T02:44:44.875Z,12.00
2022-12-14T02:47:16.225Z,11.53
2022-12-14T02:49:23.949Z,12.23
2022-12-14T02:51:57.622Z,11.93
2022-12-14T02:54:17.825Z,12.37
2022-12-14T02:56:25.641Z,11.07
2022-12-14T02:58:38.324Z,14.03
2022-12-14T03:00:41.206Z,10.97
2022-12-14T03:02:44.963Z,12.17
2022-12-14T03:04:51.168Z,13.97
2022-12-14T03:07:24.709Z,11.80
2022-12-14T03:09:31.417Z,12.67
2022-12-14T03:11:56.354Z,9.83
2022-12-14T03:14:24.111Z,10.40
2022-12-14T03:16:32.176Z,10.47
2022-12-14T03:18:43.029Z,9.20
2022-12-14T03:20:50.511Z,10.23
2022-12-14T03:23:15.916Z,8.93
2022-12-14T03:25:25.656Z,9.07
2022-12-14T03:27:35.168Z,8.93
2022-12-14T03:29:53.362Z,8.50
2022-12-14T03:32:26.759Z,11.23
2022-12-14T03:34:34.237Z,10.47
2022-12-14T03:36:44.145Z,10.70
2022-12-14T03:38:51.272Z,11.27
2022-12-14T03:40:57.803Z,11.20
2022-12-14T03:43:33.035Z,11.30
2022-12-14T03:46:01.375Z,8.93
2022-12-14T03:48:42.910Z,8.47
2022-12-14T03:51:01.555Z,7.00
2022-12-14T03:53:06.107Z,6.67
2022-12-14T03:55:09.028Z,7.93
2022-12-14T03:57:34.625Z,10.07
2022-12-14T04:00:01.817Z,12.70
2022-12-14T04:02:11.176Z,10.10
2022-12-14T04:04:18.886Z,8.23
2022-12-14T04:06:38.865Z,7.33
2022-12-14T04:08:49.986Z,6.50
2022-12-14T04:11:14.758Z,7.77
2022-12-14T04:13:40.503Z,8.17
2022-12-14T04:16:02.749Z,7.63
2022-12-14T04:18:28.126Z,7.80
2022-12-14T04:20:53.130Z,8.73
2022-12-14T04:23:04.021Z,9.63
2022-12-14T04:25:38.693Z,7.93
2022-12-14T04:28:00.224Z,7.83
2022-12-14T04:30:05.253Z,7.37
2022-12-14T04:32:18.447Z,6.93
2022-12-14T04:34:24.631Z,7.10
2022-12-14T04:36:34.369Z,6.50
2022-12-14T04:39:26.392Z,7.57
2022-12-14T04:41:34.129Z,7.43
2022-12-14T04:43:41.160Z,7.43
2022-12-14T04:45:58.646Z,6.90
2022-12-14T04:48:31.062Z,6.53
2022-12-14T04:50:39.906Z,6.63
2022-12-14T04:52:49.630Z,7.23
2022-12-14T04:54:56.810Z,6.77
2022-12-14T04:57:26.096Z,11.77
2022-12-14T04:59:29.121Z,15.03
2022-12-14T05:01:57.733Z,18.00
2022-12-14T05:04:31.819Z,24.53
2022-12-14T05:06:44.182Z,27.17
2022-12-14T05:08:55.701Z,24.67
2022-12-14T05:11:39.641Z,19.73
2022-12-14T05:13:49.123Z,29.77
2022-12-14T05:15:56.681Z,37.50
2022-12-14T05:18:03.946Z,33.53
2022-12-14T05:20:12.942Z,23.87
2022-12-14T05:22:15.073Z,31.20
2022-12-14T05:24:17.514Z,52.47
2022-12-14T05:26:19.448Z,61.87
2022-12-14T05:28:21.714Z,59.17
2022-12-14T05:30:23.780Z,60.37
2022-12-14T05:32:26.388Z,22.50
2022-12-14T05:34:28.447Z,17.60
2022-12-14T05:36:30.577Z,29.77
2022-12-14T05:38:32.673Z,13.57
2022-12-14T05:40:34.736Z,21.97
2022-12-14T05:42:41.088Z,21.10
2022-12-14T05:44:46.817Z,19.30
2022-12-14T05:46:48.846Z,33.60
2022-12-14T05:48:51.063Z,27.40
2022-12-14T05:50:53.216Z,27.57
2022-12-14T05:52:56.006Z,23.60
2022-12-14T05:55:02.441Z,19.20
2022-12-14T05:57:07.135Z,22.73
2022-12-14T05:59:09.455Z,14.97
2022-12-14T06:01:17.221Z,22.03
2022-12-14T06:03:21.773Z,25.30
2022-12-14T06:05:23.962Z,22.40
2022-12-14T06:07:28.110Z,15.73
2022-12-14T06:09:30.665Z,14.03
2022-12-14T06:11:33.503Z,19.13
2022-12-14T06:13:36.871Z,14.63
2022-12-14T06:15:38.737Z,16.17
2022-12-14T06:17:47.541Z,13.03
2022-12-14T06:19:50.600Z,13.57
2022-12-14T06:21:52.579Z,13.43
2022-12-14T06:23:55.664Z,24.97
2022-12-14T06:25:57.899Z,20.97
2022-12-14T06:27:59.962Z,26.70
2022-12-14T06:30:02.172Z,27.30
2022-12-14T06:32:04.390Z,24.83
2022-12-14T06:34:06.425Z,21.27
2022-12-14T06:36:26.924Z,16.97
2022-12-14T06:38:29.168Z,11.27
2022-12-14T06:40:31.633Z,13.90
2022-12-14T06:42:33.591Z,12.80
2022-12-14T06:44:35.833Z,9.00
2022-12-14T06:46:38.104Z,6.43
2022-12-14T06:48:40.350Z,5.10
2022-12-14T06:50:42.312Z,6.13
2022-12-14T06:52:44.388Z,8.70
2022-12-14T06:54:47.123Z,7.37
2022-12-14T06:56:49.488Z,7.90
2022-12-14T06:58:52.988Z,8.87
2022-12-14T07:00:55.079Z,13.27
2022-12-14T07:02:57.330Z,18.80
2022-12-14T07:04:59.764Z,27.33
2022-12-14T07:07:02.188Z,27.30
2022-12-14T07:09:05.879Z,26.57
2022-12-14T07:11:10.920Z,22.50
2022-12-14T07:13:13.099Z,26.30
2022-12-14T07:15:15.558Z,20.17
2022-12-14T07:17:17.566Z,17.67
2022-12-14T07:19:19.430Z,14.67
2022-12-14T07:21:22.819Z,11.57
2022-12-14T07:23:28.107Z,11.90
2022-12-14T07:25:30.539Z,15.47
2022-12-14T07:27:33.002Z,16.43
2022-12-14T07:29:35.218Z,17.60
2022-12-14T07:31:37.387Z,15.73
2022-12-14T07:33:39.839Z,16.60
2022-12-14T07:35:42.235Z,13.07
2022-12-14T07:37:49.349Z,11.50
2022-12-14T07:39:54.819Z,11.93
2022-12-14T07:41:56.835Z,14.60
2022-12-14T07:44:00.991Z,12.87
2022-12-14T07:46:05.610Z,12.77
2022-12-14T07:48:07.826Z,13.60
2022-12-14T07:50:10.731Z,11.83
2022-12-14T07:52:12.849Z,11.77
2022-12-14T07:54:14.983Z,10.57
2022-12-14T07:56:20.918Z,11.67
2022-12-14T07:58:23.030Z,9.23
2022-12-14T08:00:25.135Z,9.43
2022-12-14T08:02:27.452Z,7.53
2022-12-14T08:04:29.639Z,7.50
2022-12-14T08:06:32.174Z,7.77
2022-12-14T08:08:37.151Z,8.47
2022-12-14T08:10:40.644Z,8.37
2022-12-14T08:12:42.990Z,9.47
2022-12-14T08:14:45.168Z,9.40
2022-12-14T08:16:48.721Z,7.50
2022-12-14T08:18:53.369Z,10.17
2022-12-14T08:20:55.594Z,10.47
2022-12-14T08:22:57.797Z,11.07
2022-12-14T08:25:00.222Z,7.00
2022-12-14T08:27:02.710Z,13.10
2022-12-14T08:29:05.797Z,13.17
2022-12-14T08:31:11.537Z,13.80
2022-12-14T08:33:13.737Z,14.37
2022-12-14T08:35:15.957Z,13.93
2022-12-14T08:37:17.963Z,11.93
2022-12-14T08:39:20.225Z,13.47
2022-12-14T08:41:23.398Z,12.60
2022-12-14T08:43:28.982Z,13.67
2022-12-14T08:45:31.390Z,11.37
2022-12-14T08:47:33.529Z,12.40
2022-12-14T08:49:35.822Z,13.23
2022-12-14T08:51:38.850Z,11.63
2022-12-14T08:53:40.930Z,12.00
2022-12-14T08:55:43.663Z,16.77
2022-12-14T08:57:45.886Z,20.37
2022-12-14T09:00:03.782Z,20.67
2022-12-14T09:02:06.611Z,13.07
2022-12-14T09:04:09.042Z,7.47
2022-12-14T09:06:16.485Z,5.33
2022-12-14T09:08:18.622Z,6.00
2022-12-14T09:10:20.470Z,7.20
2022-12-14T09:12:23.486Z,6.43
2022-12-14T09:14:25.514Z,13.17
2022-12-14T09:16:27.889Z,13.67
2022-12-14T09:18:30.690Z,11.47
2022-12-14T09:20:33.544Z,9.13
2022-12-14T09:22:35.704Z,8.23
2022-12-14T09:24:38.019Z,8.70
2022-12-14T09:26:40.257Z,10.83
2022-12-14T09:28:46.186Z,11.03
2022-12-14T09:30:48.229Z,7.63
2022-12-14T09:32:50.712Z,7.93
2022-12-14T09:34:53.293Z,6.97
2022-12-14T09:36:55.425Z,6.30
2022-12-14T09:38:58.027Z,6.67
2022-12-14T09:41:07.637Z,8.40
2022-12-14T09:43:20.369Z,8.63
2022-12-14T09:45:29.094Z,15.50
2022-12-14T09:47:35.848Z,12.33
2022-12-14T09:50:06.836Z,11.37
2022-12-14T09:52:18.333Z,19.57
2022-12-14T09:54:26.457Z,19.40
2022-12-14T09:56:28.967Z,17.60
2022-12-14T09:58:33.266Z,16.27
2022-12-14T10:00:48.197Z,15.73
2022-12-14T10:03:40.626Z,13.77
2022-12-14T10:05:48.929Z,15.60
2022-12-14T10:07:59.580Z,15.13
2022-12-14T10:10:10.813Z,14.77
2022-12-14T10:12:34.614Z,12.73
2022-12-14T10:15:24.439Z,12.10
2022-12-14T10:18:01.450Z,9.83
2022-12-14T10:20:30.088Z,9.57
2022-12-14T10:22:37.930Z,10.77
2022-12-14T10:24:49.193Z,19.60
2022-12-14T10:26:53.578Z,23.67
2022-12-14T10:29:32.888Z,21.63
2022-12-14T10:31:41.139Z,18.37
2022-12-14T10:33:45.743Z,14.60
2022-12-14T10:35:55.308Z,11.27
2022-12-14T10:38:25.208Z,9.50
2022-12-14T10:40:34.242Z,7.90
2022-12-14T10:42:55.630Z,12.63
2022-12-14T10:45:39.023Z,18.67
2022-12-14T10:47:38.138Z,17.33
2022-12-14T10:49:53.420Z,14.30
2022-12-14T10:52:03.562Z,18.47
2022-12-14T10:54:23.703Z,20.10
2022-12-14T10:56:34.192Z,20.63
2022-12-14T10:58:36.274Z,22.73
2022-12-14T11:00:38.532Z,36.60
2022-12-14T11:02:44.374Z,31.90
2022-12-14T11:04:56.583Z,24.83
2022-12-14T11:07:04.832Z,20.43
2022-12-14T11:09:21.756Z,19.17
2022-12-14T11:11:26.114Z,20.30
2022-12-14T11:13:28.387Z,19.20
2022-12-14T11:15:38.015Z,20.83
2022-12-14T11:17:42.973Z,19.83
2022-12-14T11:20:02.821Z,18.57
2022-12-14T11:22:18.662Z,20.27
2022-12-14T11:24:27.404Z,21.70
2022-12-14T11:26:43.203Z,18.83
2022-12-14T11:28:56.423Z,13.97
2022-12-14T11:31:13.964Z,13.43
2022-12-14T11:33:17.952Z,15.83
2022-12-14T11:35:21.479Z,21.83
2022-12-14T11:37:27.104Z,21.60
2022-12-14T11:39:29.420Z,20.73
2022-12-14T11:41:59.151Z,20.03
2022-12-14T11:44:24.181Z,21.27
2022-12-14T11:46:47.468Z,25.13
2022-12-14T11:48:52.704Z,26.80
2022-12-14T11:51:08.941Z,35.30
2022-12-14T11:53:17.332Z,39.53
2022-12-14T11:55:27.130Z,36.77
2022-12-14T11:57:59.648Z,28.77
2022-12-14T12:00:06.060Z,22.83
2022-12-14T12:02:41.169Z,16.63
2022-12-14T12:04:56.240Z,9.50
2022-12-14T12:07:04.268Z,7.40
2022-12-14T12:09:21.888Z,12.67
2022-12-14T12:11:28.687Z,21.90
2022-12-14T12:13:42.293Z,26.30
2022-12-14T12:15:51.315Z,36.23
2022-12-14T12:17:58.178Z,35.83
2022-12-14T12:20:00.064Z,41.13
2022-12-14T12:22:04.214Z,31.47
2022-12-14T12:24:38.744Z,24.10
2022-12-14T12:27:12.442Z,26.03
2022-12-14T12:29:38.190Z,26.13
2022-12-14T12:31:57.237Z,26.00
2022-12-14T12:34:14.376Z,44.30
2022-12-14T12:36:23.939Z,43.10
2022-12-14T12:38:50.117Z,40.47
2022-12-14T12:41:16.905Z,39.53
2022-12-14T12:43:32.183Z,31.90
2022-12-14T12:45:44.626Z,17.13
2022-12-14T12:48:04.350Z,11.93
2022-12-14T12:50:30.636Z,11.43
2022-12-14T12:52:48.897Z,14.07
2022-12-14T12:55:00.513Z,17.13
2022-12-14T12:57:05.151Z,19.97
2022-12-14T12:59:07.933Z,18.20
2022-12-14T13:01:19.994Z,27.47
2022-12-14T13:03:53.501Z,25.50
2022-12-14T13:06:03.139Z,14.03
2022-12-14T13:08:13.689Z,14.93
2022-12-14T13:10:32.349Z,29.07
2022-12-14T13:12:42.209Z,44.23
2022-12-14T13:14:50.281Z,34.17
2022-12-14T13:16:54.468Z,37.73
2022-12-14T13:21:36.737Z,30.97
2022-12-14T13:23:46.330Z,36.97
2022-12-14T13:26:55.608Z,39.20
2022-12-14T13:28:57.375Z,51.43
2022-12-14T13:31:21.045Z,39.67
2022-12-14T13:33:42.166Z,35.13
2022-12-14T13:36:15.509Z,36.37
2022-12-14T13:38:42.236Z,39.23
2022-12-14T13:41:19.933Z,30.50
2022-12-14T13:43:49.778Z,39.93
2022-12-14T13:45:51.945Z,35.00
2022-12-14T13:47:57.244Z,28.63
2022-12-14T13:52:41.758Z,22.60
2022-12-14T13:54:47.726Z,19.37
2022-12-14T13:56:50.158Z,19.00
2022-12-14T13:58:52.949Z,26.80
2022-12-14T14:00:58.562Z,31.13
2022-12-14T14:03:00.710Z,33.93
2022-12-14T14:05:20.611Z,30.00
2022-12-14T14:07:25.532Z,26.40
2022-12-14T14:09:33.857Z,28.80
2022-12-14T14:11:37.537Z,30.13
2022-12-14T14:13:40.334Z,34.37
2022-12-14T14:16:26.425Z,34.10
2022-12-14T14:18:19.901Z,70.17
2022-12-14T14:20:35.256Z,58.53
2022-12-14T14:22:39.123Z,43.00
2022-12-14T14:25:02.522Z,27.60
2022-12-14T14:27:07.598Z,23.00
2022-12-14T14:29:21.432Z,21.77
2022-12-14T14:31:43.972Z,33.87
2022-12-14T14:33:49.694Z,26.43
2022-12-14T14:35:51.976Z,28.53
2022-12-14T14:37:59.405Z,25.00
2022-12-14T14:40:20.659Z,31.13
2022-12-14T14:42:29.698Z,46.00
2022-12-14T14:44:40.784Z,27.60
2022-12-14T14:46:48.612Z,27.17
2022-12-14T14:48:56.596Z,25.70
2022-12-14T14:51:05.978Z,29.00
2022-12-14T14:53:30.091Z,36.33
2022-12-14T14:58:01.225Z,67.67
2022-12-14T15:00:06.745Z,89.63
2022-12-14T15:02:41.906Z,96.23
2022-12-14T15:04:51.546Z,101.53
2022-12-14T15:07:07.691Z,70.40
2022-12-14T15:09:09.707Z,60.57
2022-12-14T15:11:17.101Z,32.23
2022-12-14T15:13:30.243Z,20.60
2022-12-14T15:15:46.059Z,21.10
2022-12-14T15:17:48.098Z,23.47
2022-12-14T15:20:03.257Z,34.57
2022-12-14T15:22:36.642Z,20.60
2022-12-14T15:24:42.452Z,17.33
2022-12-14T15:26:44.583Z,14.93
2022-12-14T15:28:49.380Z,19.63
2022-12-14T15:30:51.770Z,13.77
2022-12-14T15:32:59.286Z,14.17
2022-12-14T15:35:08.631Z,14.53
2022-12-14T15:37:37.130Z,11.13
2022-12-14T15:39:40.778Z,16.77
2022-12-14T15:41:43.180Z,18.77
2022-12-14T15:43:47.063Z,24.97
2022-12-14T15:45:55.671Z,21.33
2022-12-14T15:48:40.387Z,17.27
2022-12-14T15:50:46.665Z,14.53
2022-12-14T15:52:51.280Z,18.90
2022-12-14T15:54:53.596Z,23.77
2022-12-14T15:56:57.903Z,29.33
2022-12-14T15:59:31.751Z,30.03
2022-12-14T16:01:54.204Z,27.17
2022-12-14T16:04:07.821Z,21.13
2022-12-14T16:06:14.585Z,20.77
2022-12-14T16:08:17.827Z,18.97
2022-12-14T16:10:29.050Z,19.20
2022-12-14T16:12:44.732Z,19.90
2022-12-14T16:14:47.713Z,21.70
2022-12-14T16:16:50.945Z,23.90
2022-12-14T16:18:53.089Z,24.53
2022-12-14T16:21:00.550Z,28.00
2022-12-14T16:23:20.298Z,35.23
2022-12-14T16:25:22.391Z,31.57
2022-12-14T16:27:27.820Z,28.97
2022-12-14T16:29:32.488Z,26.10
2022-12-14T16:31:36.353Z,26.13
2022-12-14T16:33:40.993Z,23.60
2022-12-14T16:35:44.768Z,25.30
2022-12-14T16:37:51.385Z,21.50
2022-12-14T16:39:53.727Z,18.73
2022-12-14T16:42:00.832Z,19.07
2022-12-14T16:44:07.722Z,19.03
2022-12-14T16:46:15.493Z,19.90
2022-12-14T16:48:21.313Z,20.07
2022-12-14T16:50:56.632Z,19.57
2022-12-14T16:52:47.313Z,22.27
2022-12-14T16:55:14.418Z,22.23
2022-12-14T16:57:24.470Z,23.33
2022-12-14T16:59:38.302Z,23.33
2022-12-14T17:01:45.125Z,30.13
2022-12-14T17:04:00.138Z,35.60
2022-12-14T17:06:07.567Z,72.53
2022-12-14T17:08:11.747Z,59.30
2022-12-14T17:10:32.839Z,86.77
2022-12-14T17:12:35.035Z,109.83
2022-12-14T17:14:37.149Z,93.10
2022-12-14T17:16:39.790Z,71.50
2022-12-14T17:18:45.297Z,38.77
2022-12-14T17:20:47.538Z,49.63
2022-12-14T17:22:50.197Z,48.13
2022-12-14T17:24:52.536Z,42.43
2022-12-14T17:26:54.589Z,53.37
2022-12-14T17:28:57.582Z,47.93
2022-12-14T17:31:01.969Z,73.53
2022-12-14T17:33:04.194Z,70.37
2022-12-14T17:35:10.815Z,63.87
2022-12-14T17:37:24.609Z,66.53
2022-12-14T17:39:28.846Z,39.80
2022-12-14T17:41:31.206Z,56.17
2022-12-14T17:43:33.698Z,51.73
2022-12-14T17:45:36.091Z,49.17
2022-12-14T17:47:38.225Z,57.83
2022-12-14T17:49:42.439Z,51.40
2022-12-14T17:51:46.689Z,46.40
2022-12-14T17:53:49.371Z,62.30
2022-12-14T17:55:51.468Z,63.10
2022-12-14T17:57:54.616Z,73.17
2022-12-14T18:00:15.534Z,63.80
2022-12-14T18:02:26.646Z,64.47
2022-12-14T18:04:28.942Z,57.43
2022-12-14T18:06:33.926Z,48.27
2022-12-14T18:08:35.988Z,44.83
2022-12-14T18:10:39.093Z,37.10
2022-12-14T18:12:44.633Z,86.67
2022-12-14T18:14:47.133Z,125.50
2022-12-14T18:16:49.943Z,86.77
2022-12-14T18:18:54.321Z,69.90
2022-12-14T18:21:02.365Z,68.87
2022-12-14T18:23:04.442Z,47.77
2022-12-14T18:25:32.661Z,37.73
2022-12-14T18:27:34.645Z,44.10
2022-12-14T18:29:39.081Z,43.23
2022-12-14T18:31:41.326Z,31.30
2022-12-14T18:33:47.519Z,93.70
2022-12-14T18:35:50.784Z,109.33
2022-12-14T18:37:53.588Z,53.57
2022-12-14T18:39:55.682Z,31.20
2022-12-14T18:42:00.617Z,29.57
2022-12-14T18:44:02.891Z,34.53
2022-12-14T18:46:05.389Z,28.53
2022-12-14T18:48:07.770Z,35.47
2022-12-14T18:50:10.271Z,29.67
2022-12-14T18:52:13.122Z,26.70
2022-12-14T18:54:17.575Z,30.23
2022-12-14T18:56:22.191Z,32.70
2022-12-14T18:58:29.345Z,30.30
2022-12-14T19:00:36.491Z,31.33
2022-12-14T19:02:39.803Z,30.97
2022-12-14T19:04:42.298Z,34.07
2022-12-14T19:06:46.132Z,35.67
2022-12-14T19:08:49.521Z,36.70
2022-12-14T19:10:51.762Z,38.20
2022-12-14T19:12:54.299Z,40.97
2022-12-14T19:14:56.341Z,31.17
2022-12-14T19:16:58.820Z,41.40
2022-12-14T19:19:00.991Z,30.47
2022-12-14T19:21:04.026Z,31.43
2022-12-14T19:23:16.399Z,32.00
2022-12-14T19:25:19.832Z,33.70
2022-12-14T19:27:42.531Z,34.77
2022-12-14T19:29:44.290Z,31.50
2022-12-14T19:31:47.794Z,29.43
2022-12-14T19:33:54.337Z,26.03
2022-12-14T19:35:56.666Z,29.27
2022-12-14T19:37:58.792Z,30.47
2022-12-14T19:40:02.803Z,27.40
2022-12-14T19:42:04.992Z,30.70
2022-12-14T19:44:07.448Z,37.13
2022-12-14T19:46:11.504Z,37.03
2022-12-14T19:48:13.806Z,37.50
2022-12-14T19:50:16.550Z,34.37
2022-12-14T19:52:18.656Z,43.30
2022-12-14T19:54:20.787Z,59.77
2022-12-14T19:56:23.516Z,53.97
2022-12-14T19:58:25.609Z,68.33
2022-12-14T20:00:28.031Z,82.13
2022-12-14T20:02:30.261Z,89.67
2022-12-14T20:04:35.436Z,79.00
2022-12-14T20:06:37.827Z,62.23
2022-12-14T20:08:39.966Z,59.27
2022-12-14T20:10:42.277Z,47.33
2022-12-14T20:12:44.352Z,47.60
2022-12-14T20:14:49.360Z,43.70
2022-12-14T20:16:52.627Z,29.33
2022-12-14T20:18:54.781Z,30.93
2022-12-14T20:21:16.034Z,27.93
2022-12-14T20:23:22.406Z,23.27
2022-12-14T20:25:25.081Z,20.53
2022-12-14T20:27:27.283Z,14.83
2022-12-14T20:29:29.461Z,12.50
2022-12-14T20:31:34.963Z,11.93
2022-12-14T20:33:38.835Z,12.43
2022-12-14T20:35:43.548Z,16.03
2022-12-14T20:37:46.372Z,16.30
2022-12-14T20:39:48.873Z,20.17
2022-12-14T20:41:54.096Z,20.13
2022-12-14T20:43:56.307Z,23.20
2022-12-14T20:45:58.751Z,26.07
2022-12-14T20:48:00.902Z,35.50
2022-12-14T20:50:06.940Z,35.77
2022-12-14T20:52:09.266Z,28.80
2022-12-14T20:54:17.794Z,38.40
2022-12-14T20:56:19.789Z,35.13
2022-12-14T20:58:22.320Z,29.17
2022-12-14T21:00:24.698Z,33.10
2022-12-14T21:02:26.858Z,28.97
2022-12-14T21:04:29.092Z,28.10
2022-12-14T21:06:33.150Z,20.43
2022-12-14T21:08:54.208Z,15.80
2022-12-14T21:11:23.762Z,17.60
2022-12-14T21:13:25.768Z,17.70
2022-12-14T21:15:28.424Z,18.03
2022-12-14T21:17:31.381Z,18.80
2022-12-14T21:19:33.614Z,20.83
2022-12-14T21:21:35.447Z,21.33
2022-12-14T21:23:41.237Z,23.93
2022-12-14T21:25:44.198Z,23.73
2022-12-14T21:27:46.540Z,22.30
2022-12-14T21:29:49.472Z,20.43
2022-12-14T21:31:51.554Z,19.17
2022-12-14T21:33:58.537Z,16.63
2022-12-14T21:36:00.785Z,16.97
2022-12-14T21:38:03.137Z,18.60
2022-12-14T21:40:05.815Z,18.47
2022-12-14T21:42:10.577Z,19.20
2022-12-14T21:44:12.697Z,19.93
2022-12-14T21:46:18.771Z,56.17
2022-12-14T21:48:21.059Z,71.00
2022-12-14T21:50:23.208Z,69.23
2022-12-14T21:52:26.707Z,47.20
2022-12-14T21:54:29.029Z,43.20
2022-12-14T21:56:49.541Z,40.23
2022-12-14T21:58:53.125Z,29.37
2022-12-14T22:00:56.403Z,26.93
2022-12-14T22:02:58.972Z,32.07
2022-12-14T22:05:01.074Z,31.83
2022-12-14T22:07:03.339Z,34.17
2022-12-14T22:09:05.978Z,32.60
2022-12-14T22:11:08.418Z,32.63
2022-12-14T22:13:10.554Z,32.87
2022-12-14T22:15:12.817Z,47.83
2022-12-14T22:17:14.973Z,54.50
2022-12-14T22:19:22.372Z,54.50
2022-12-14T22:21:24.457Z,56.37
2022-12-14T22:23:26.712Z,67.07
2022-12-14T22:25:29.216Z,57.97
2022-12-14T22:27:31.650Z,55.33
2022-12-14T22:29:33.882Z,42.67
2022-12-14T22:31:37.429Z,45.57
2022-12-14T22:33:39.673Z,57.37
2022-12-14T22:35:41.734Z,49.40
2022-12-14T22:37:43.821Z,38.33
2022-12-14T22:39:48.780Z,45.43
2022-12-14T22:41:51.142Z,41.37
2022-12-14T22:43:57.877Z,34.27
2022-12-14T22:46:04.036Z,41.40
2022-12-14T22:48:06.314Z,51.90
2022-12-14T22:50:09.117Z,43.50
2022-12-14T22:52:11.398Z,41.27
2022-12-14T22:54:21.207Z,33.33
2022-12-14T22:56:34.727Z,30.37
2022-12-14T22:58:39.651Z,28.77
2022-12-14T23:00:41.956Z,30.43
2022-12-14T23:02:48.196Z,28.67
2022-12-14T23:04:51.204Z,34.37
2022-12-14T23:06:54.333Z,33.73
2022-12-14T23:09:15.204Z,40.03
2022-12-14T23:11:36.013Z,36.77
2022-12-14T23:13:56.803Z,31.00
2022-12-14T23:16:17.799Z,31.07
2022-12-14T23:18:39.039Z,32.07
2022-12-14T23:20:59.526Z,29.90
2022-12-14T23:23:24.381Z,30.67
2022-12-14T23:25:45.434Z,23.03
2022-12-14T23:28:05.967Z,25.83
2022-12-14T23:30:27.606Z,38.43
2022-12-14T23:32:48.276Z,34.73
2022-12-14T23:35:09.423Z,36.50
2022-12-14T23:37:30.108Z,42.00
2022-12-14T23:39:51.347Z,55.00
2022-12-14T23:42:12.596Z,33.63
2022-12-14T23:44:33.102Z,26.47
2022-12-14T23:46:53.809Z,27.77
2022-12-14T23:49:16.232Z,23.30
2022-12-14T23:51:37.054Z,24.67
2022-12-14T23:53:57.921Z,44.80
2022-12-14T23:56:19.318Z,43.17
2022-12-14T23:58:40.108Z,41.53
